Time;durP1;ratioP1;P1;durP2;ratioP2;P2;SDS_P1;SDS_P2;PMS_P1;PMS_P2;Temp;Humidity;BMP_temperature;BMP_pressure;BME280_temperature;BME280_humidity;BME280_pressure;Samples;Min_cycle;Max_cycle;Signal;HPM_P1;HPM_P2
2022/04/11 00:02:00;;;;;;;10.48;2.90;;;10.80;99.90;;;;;;4973763;28;20054;-77
2022/04/11 00:04:26;;;;;;;15.45;3.13;;;10.80;99.90;;;;;;4971712;28;20046;-77
2022/04/11 00:06:52;;;;;;;14.95;3.33;;;10.90;99.90;;;;;;4973644;28;20031;-77
2022/04/11 00:09:18;;;;;;;19.00;2.78;;;10.90;99.90;;;;;;4973598;28;20030;-77
2022/04/11 00:11:44;;;;;;;15.75;3.58;;;10.90;99.90;;;;;;4973874;28;20031;-77
2022/04/11 00:14:10;;;;;;;21.25;3.75;;;11.00;99.90;;;;;;4973852;28;20042;-78
2022/04/11 00:16:35;;;;;;;15.60;3.15;;;11.00;99.90;;;;;;4973569;28;20027;-77
2022/04/11 00:19:01;;;;;;;14.80;2.83;;;11.00;99.90;;;;;;4973679;28;20070;-77
2022/04/11 00:21:27;;;;;;;12.68;3.38;;;11.00;99.90;;;;;;4973096;28;20482;-77
2022/04/11 00:23:53;;;;;;;15.35;2.63;;;11.10;99.90;;;;;;4973643;28;20027;-77
2022/04/11 00:26:20;;;;;;;11.70;2.83;;;11.10;99.90;;;;;;4972048;28;20035;-78
2022/04/11 00:28:46;;;;;;;11.32;2.40;;;11.10;99.90;;;;;;4973668;28;20019;-77
2022/04/11 00:31:12;;;;;;;16.10;3.20;;;11.10;99.90;;;;;;4973419;28;20030;-77
2022/04/11 00:33:37;;;;;;;16.92;2.67;;;11.20;99.90;;;;;;4973520;28;20027;-77
2022/04/11 00:36:03;;;;;;;17.45;3.15;;;11.10;99.90;;;;;;4973370;28;20102;-77
2022/04/11 00:38:29;;;;;;;16.30;4.10;;;11.20;99.90;;;;;;4971794;28;20034;-78
2022/04/11 00:40:54;;;;;;;15.20;2.97;;;11.20;99.90;;;;;;4973370;28;20038;-77
2022/04/11 00:43:36;;;;;;;7.38;2.15;;;11.20;99.90;;;;;;4973171;28;20512;-77
2022/04/11 00:46:03;;;;;;;15.63;3.00;;;11.20;99.90;;;;;;4973385;28;20030;-79
2022/04/11 00:48:29;;;;;;;18.42;3.40;;;11.20;99.90;;;;;;4971896;28;20027;-79
2022/04/11 00:51:19;;;;;;;17.85;3.08;;;11.30;99.90;;;;;;4973127;28;20089;-77
2022/04/11 00:53:46;;;;;;;20.23;3.33;;;11.30;99.90;;;;;;4976505;28;20681;-79
2022/04/11 00:56:14;;;;;;;11.18;3.53;;;11.20;99.90;;;;;;4976524;28;20065;-79
2022/04/11 00:58:40;;;;;;;14.27;2.95;;;11.30;99.90;;;;;;4983886;28;20034;-79
2022/04/11 01:01:07;;;;;;;18.95;2.90;;;11.30;99.90;;;;;;4996142;28;20026;-79
2022/04/11 01:03:33;;;;;;;18.00;3.38;;;11.30;99.90;;;;;;4995258;28;20018;-79
2022/04/11 01:05:59;;;;;;;11.15;3.03;;;11.30;99.90;;;;;;4995839;28;20023;-79
2022/04/11 01:08:25;;;;;;;18.35;3.60;;;11.40;99.90;;;;;;4995479;28;20026;-77
2022/04/11 01:10:54;;;;;;;13.48;2.63;;;11.30;99.90;;;;;;4995912;28;20494;-79
2022/04/11 01:13:20;;;;;;;20.02;3.17;;;11.40;99.90;;;;;;4996194;28;20413;-79
2022/04/11 01:16:12;;;;;;;11.75;2.85;;;11.40;99.90;;;;;;4994476;28;20026;-79
2022/04/11 01:18:39;;;;;;;14.05;2.63;;;11.40;99.90;;;;;;4991563;28;20046;-79
2022/04/11 01:21:08;;;;;;;14.98;3.15;;;11.40;99.90;;;;;;4994260;28;20042;-79
2022/04/11 01:23:34;;;;;;;13.38;2.70;;;11.40;99.90;;;;;;4995477;28;20018;-79
2022/04/11 01:26:00;;;;;;;10.15;3.00;;;11.40;99.90;;;;;;4995763;28;20025;-79
2022/04/11 01:28:25;;;;;;;23.58;3.30;;;11.40;99.90;;;;;;4995482;28;20026;-79
2022/04/11 01:30:53;;;;;;;13.77;3.42;;;11.40;99.90;;;;;;4995533;28;20094;-79
2022/04/11 01:33:24;;;;;;;13.02;3.15;;;11.40;99.90;;;;;;4993897;28;20052;-79
2022/04/11 01:35:50;;;;;;;14.10;2.90;;;11.40;99.90;;;;;;4988267;28;20540;-79
2022/04/11 01:38:17;;;;;;;15.75;3.28;;;11.50;99.90;;;;;;4995474;28;20030;-79
2022/04/11 01:40:50;;;;;;;14.20;3.53;;;11.40;99.90;;;;;;4993934;28;20022;-79
2022/04/11 01:43:16;;;;;;;16.42;4.13;;;11.40;99.90;;;;;;4995495;28;20382;-79
2022/04/11 01:45:41;;;;;;;15.07;3.65;;;11.50;99.90;;;;;;4995212;28;20018;-79
2022/04/11 01:48:07;;;;;;;16.88;3.42;;;11.50;99.90;;;;;;4995133;28;20031;-79
2022/04/11 01:50:33;;;;;;;15.60;3.80;;;11.50;99.90;;;;;;4995237;28;20445;-79
2022/04/11 01:53:10;;;;;;;14.13;2.47;;;11.50;99.90;;;;;;4995278;28;20475;-79
2022/04/11 01:55:36;;;;;;;15.82;3.70;;;11.50;99.90;;;;;;4994851;28;20022;-79
2022/04/11 01:58:03;;;;;;;26.88;4.28;;;11.50;99.90;;;;;;4992730;28;20117;-79
2022/04/11 02:00:30;;;;;;;15.73;3.30;;;11.50;99.90;;;;;;4974266;28;20101;-79
2022/04/11 02:02:55;;;;;;;20.77;3.50;;;11.50;99.90;;;;;;4974216;28;20247;-79
2022/04/11 02:05:21;;;;;;;18.17;3.72;;;11.50;99.90;;;;;;4972988;28;20157;-79
2022/04/11 02:07:47;;;;;;;14.68;3.22;;;11.50;99.90;;;;;;4974812;28;20038;-79
2022/04/11 02:10:13;;;;;;;18.45;3.80;;;11.50;99.90;;;;;;4975690;28;20058;-79
2022/04/11 02:12:39;;;;;;;14.80;3.45;;;11.50;99.90;;;;;;4975442;28;20042;-79
2022/04/11 02:15:06;;;;;;;16.85;3.45;;;11.50;99.90;;;;;;4973957;28;20031;-79
2022/04/11 02:17:32;;;;;;;11.52;3.30;;;11.50;99.90;;;;;;4974821;28;20022;-79
2022/04/11 02:19:58;;;;;;;8.00;3.22;;;11.50;99.90;;;;;;4975082;28;20446;-79
2022/04/11 02:22:23;;;;;;;18.27;3.80;;;11.50;99.90;;;;;;4975350;28;20442;-79
2022/04/11 02:24:50;;;;;;;18.55;3.85;;;11.50;99.90;;;;;;4975078;28;20014;-79
2022/04/11 02:27:16;;;;;;;15.55;2.90;;;11.50;99.90;;;;;;4975225;28;20475;-79
2022/04/11 02:29:42;;;;;;;21.27;3.47;;;11.50;99.90;;;;;;4974730;28;20019;-79
2022/04/11 02:32:08;;;;;;;20.17;2.90;;;11.50;99.90;;;;;;4974754;28;20026;-79
2022/04/11 02:34:33;;;;;;;22.75;4.05;;;11.50;99.90;;;;;;4974810;28;20834;-79
2022/04/11 02:36:59;;;;;;;17.38;3.67;;;11.50;99.90;;;;;;4974815;28;20058;-79
2022/04/11 02:39:25;;;;;;;22.58;2.95;;;11.50;99.90;;;;;;4975140;28;20420;-79
2022/04/11 02:41:50;;;;;;;21.23;3.65;;;11.40;99.90;;;;;;4974569;28;20062;-79
2022/04/11 02:44:16;;;;;;;16.20;3.78;;;11.40;99.90;;;;;;4974663;28;20034;-79
2022/04/11 02:46:42;;;;;;;23.42;3.53;;;11.40;99.90;;;;;;4974385;28;20045;-79
2022/04/11 02:49:08;;;;;;;14.90;3.72;;;11.40;99.90;;;;;;4974527;28;20031;-79
2022/04/11 02:51:34;;;;;;;15.48;2.60;;;11.40;99.90;;;;;;4973282;28;20125;-79
2022/04/11 02:54:02;;;;;;;19.30;2.80;;;11.40;99.90;;;;;;4974592;28;20522;-79
2022/04/11 02:56:28;;;;;;;17.23;3.67;;;11.40;99.90;;;;;;4974704;28;20027;-79
2022/04/11 02:58:53;;;;;;;18.00;3.08;;;11.30;99.90;;;;;;4982184;28;20161;-79
2022/04/11 03:01:19;;;;;;;24.98;3.85;;;11.40;99.90;;;;;;4993801;28;20033;-79
2022/04/11 03:03:45;;;;;;;18.02;2.97;;;11.30;99.90;;;;;;4993357;28;20046;-79
2022/04/11 03:06:10;;;;;;;12.75;3.45;;;11.30;99.90;;;;;;4994010;28;20058;-79
2022/04/11 03:08:36;;;;;;;12.50;2.67;;;11.30;99.90;;;;;;4993610;28;20057;-78
2022/04/11 03:11:02;;;;;;;15.13;2.72;;;11.30;99.90;;;;;;4992366;28;20031;-79
2022/04/11 03:13:28;;;;;;;27.52;3.50;;;11.30;99.90;;;;;;4993765;28;20030;-79
2022/04/11 03:15:53;;;;;;;17.73;3.20;;;11.30;99.90;;;;;;4992911;28;20026;-79
2022/04/11 03:18:19;;;;;;;15.88;2.83;;;11.30;99.90;;;;;;4993774;28;20430;-79
2022/04/11 03:20:47;;;;;;;25.02;3.00;;;11.30;99.90;;;;;;4993334;28;20034;-79
2022/04/11 03:23:14;;;;;;;23.00;3.83;;;11.30;99.90;;;;;;4993427;28;20049;-79
2022/04/11 03:25:40;;;;;;;12.88;2.58;;;11.30;99.90;;;;;;4993329;28;20030;-79
2022/04/11 03:28:07;;;;;;;17.13;2.65;;;11.30;99.90;;;;;;4993550;28;20073;-79
2022/04/11 03:30:32;;;;;;;23.42;3.45;;;11.30;99.90;;;;;;4992029;28;20466;-79
2022/04/11 03:32:58;;;;;;;24.70;2.80;;;11.30;99.90;;;;;;4993295;28;20046;-79
2022/04/11 03:35:24;;;;;;;15.88;2.72;;;11.30;99.90;;;;;;4993566;28;20026;-79
2022/04/11 03:37:49;;;;;;;17.67;3.00;;;11.30;99.90;;;;;;4993139;28;20104;-79
2022/04/11 03:40:15;;;;;;;19.40;3.00;;;11.40;99.90;;;;;;4993716;28;20054;-79
2022/04/11 03:42:41;;;;;;;14.27;2.90;;;11.40;99.90;;;;;;4993173;28;20022;-79
2022/04/11 03:45:10;;;;;;;20.35;3.67;;;11.40;99.90;;;;;;4992563;28;20434;-79
2022/04/11 03:47:36;;;;;;;21.08;2.92;;;11.40;99.90;;;;;;4993459;28;20490;-79
2022/04/11 03:50:02;;;;;;;13.35;2.65;;;11.40;99.90;;;;;;4993074;28;20109;-78
2022/04/11 03:52:28;;;;;;;13.13;2.50;;;11.30;99.90;;;;;;4993311;28;20072;-79
2022/04/11 03:54:54;;;;;;;19.85;2.78;;;11.30;99.90;;;;;;4993037;28;20037;-78
2022/04/11 03:57:20;;;;;;;17.77;2.72;;;11.30;99.90;;;;;;4992242;28;20034;-79
2022/04/11 03:59:46;;;;;;;14.57;3.03;;;11.30;99.90;;;;;;4976387;28;20035;-79
2022/04/11 04:02:11;;;;;;;19.05;3.33;;;11.30;99.90;;;;;;4973632;28;20089;-78
2022/04/11 04:04:37;;;;;;;13.30;2.72;;;11.30;99.90;;;;;;4984451;28;20049;-78
2022/04/11 04:07:03;;;;;;;14.20;3.17;;;11.30;99.90;;;;;;4992844;28;20077;-79
2022/04/11 04:09:29;;;;;;;15.65;2.60;;;11.30;99.90;;;;;;4993197;28;20038;-79
2022/04/11 04:11:54;;;;;;;19.25;3.65;;;11.30;99.90;;;;;;4993233;28;20379;-79
2022/04/11 04:14:20;;;;;;;20.48;3.78;;;11.30;99.90;;;;;;4992865;28;20118;-79
2022/04/11 04:16:46;;;;;;;20.08;2.97;;;11.30;99.90;;;;;;4992976;28;20019;-80
2022/04/11 04:19:13;;;;;;;20.67;3.28;;;11.30;99.90;;;;;;4992756;28;20022;-81
2022/04/11 04:21:39;;;;;;;21.30;2.95;;;11.30;99.90;;;;;;4975359;28;20029;-80
2022/04/11 04:24:05;;;;;;;18.20;2.80;;;11.30;99.90;;;;;;4992987;28;20026;-79
2022/04/11 04:26:30;;;;;;;16.50;2.63;;;11.30;99.90;;;;;;4992754;28;20023;-79
2022/04/11 04:28:56;;;;;;;16.92;2.85;;;11.30;99.90;;;;;;4978920;28;20117;-78
2022/04/11 04:31:22;;;;;;;11.27;2.95;;;11.30;99.90;;;;;;4996653;28;20027;-79
2022/04/11 04:33:47;;;;;;;19.75;3.65;;;11.30;99.90;;;;;;4987925;28;20038;-79
2022/04/11 04:36:13;;;;;;;21.63;3.13;;;11.30;99.90;;;;;;4977058;28;20410;-79
2022/04/11 04:38:38;;;;;;;11.10;2.83;;;11.30;99.90;;;;;;4967994;28;20372;-78
2022/04/11 04:41:04;;;;;;;21.77;3.55;;;11.30;99.90;;;;;;4957227;29;20027;-78
2022/04/11 04:43:30;;;;;;;17.42;2.78;;;11.30;99.90;;;;;;4958000;29;20117;-79
2022/04/11 04:45:55;;;;;;;17.15;3.58;;;11.30;99.90;;;;;;4969872;28;20030;-79
2022/04/11 04:48:21;;;;;;;15.32;2.85;;;11.30;99.90;;;;;;4976876;28;20046;-79
2022/04/11 04:50:47;;;;;;;16.83;3.47;;;11.30;99.90;;;;;;4968781;28;20019;-79
2022/04/11 04:53:13;;;;;;;21.33;3.00;;;11.30;99.90;;;;;;4956942;28;20685;-80
2022/04/11 04:55:39;;;;;;;19.42;3.50;;;11.30;99.90;;;;;;4971756;28;20016;-80
2022/04/11 04:58:05;;;;;;;18.17;3.22;;;11.20;99.90;;;;;;4976412;28;20384;-79
2022/04/11 05:00:30;;;;;;;17.60;2.60;;;11.30;99.90;;;;;;4976586;28;20027;-79
2022/04/11 05:02:56;;;;;;;16.40;3.08;;;11.30;99.90;;;;;;4976376;28;20031;-80
2022/04/11 05:05:22;;;;;;;20.05;2.90;;;11.40;99.90;;;;;;4976256;28;20046;-80
2022/04/11 05:07:47;;;;;;;16.58;3.30;;;11.40;99.90;;;;;;4975348;28;20031;-79
2022/04/11 05:10:14;;;;;;;22.95;2.90;;;11.40;99.90;;;;;;4975797;28;20040;-80
2022/04/11 05:12:45;;;;;;;22.20;3.00;;;11.30;99.90;;;;;;4976418;28;20057;-80
2022/04/11 05:15:12;;;;;;;19.38;3.08;;;11.30;99.90;;;;;;4975974;28;20045;-79
2022/04/11 05:17:37;;;;;;;22.42;3.80;;;11.30;99.90;;;;;;4981451;28;20067;-80
2022/04/11 06:59:48;;;;;;;15.85;2.95;;;12.40;99.90;;;;;;5594047;23;20054;-77
2022/04/11 07:02:13;;;;;;;19.00;2.50;;;12.40;99.90;;;;;;4993074;28;20030;-77
2022/04/11 07:04:39;;;;;;;8.88;1.98;;;12.40;99.90;;;;;;4981038;28;20039;-77
2022/04/11 07:07:04;;;;;;;11.77;2.53;;;12.50;99.90;;;;;;4954586;28;20026;-77
2022/04/11 07:09:31;;;;;;;17.95;2.80;;;12.50;99.90;;;;;;4987384;28;20026;-77
2022/04/11 07:11:57;;;;;;;12.98;2.60;;;12.60;99.90;;;;;;4978996;28;20027;-77
2022/04/11 07:14:23;;;;;;;13.60;2.30;;;12.60;99.90;;;;;;4980171;28;21285;-77
2022/04/11 07:16:49;;;;;;;15.55;2.85;;;12.60;99.90;;;;;;4964606;28;20026;-78
2022/04/11 07:19:15;;;;;;;15.30;2.65;;;12.70;99.90;;;;;;4987281;28;20033;-77
2022/04/11 07:21:41;;;;;;;12.25;2.08;;;12.70;99.90;;;;;;4981653;28;20038;-78
2022/04/11 07:24:06;;;;;;;15.60;2.58;;;12.80;99.90;;;;;;4982070;28;20034;-77
2022/04/11 07:26:32;;;;;;;14.10;2.33;;;12.80;99.90;;;;;;4973348;28;20023;-77
2022/04/11 07:28:58;;;;;;;14.98;2.42;;;12.90;99.90;;;;;;4977572;28;20097;-78
2022/04/11 07:31:23;;;;;;;15.45;2.95;;;12.90;99.90;;;;;;4980504;28;20038;-77
2022/04/11 07:33:49;;;;;;;14.98;2.22;;;13.00;99.90;;;;;;4974875;28;20525;-77
2022/04/11 07:36:15;;;;;;;13.98;2.55;;;13.00;99.90;;;;;;4986291;28;20033;-77
2022/04/11 07:38:40;;;;;;;14.52;2.95;;;13.10;99.90;;;;;;4977725;28;20034;-77
2022/04/11 07:41:06;;;;;;;22.10;2.30;;;13.00;99.90;;;;;;4984647;28;20035;-77
2022/04/11 07:43:34;;;;;;;18.40;2.53;;;13.10;99.90;;;;;;4979199;28;20102;-77
2022/04/11 07:46:01;;;;;;;13.00;2.53;;;13.10;99.90;;;;;;4980817;28;20032;-78
2022/04/11 07:48:26;;;;;;;22.75;4.13;;;13.20;99.90;;;;;;4975604;28;20080;-78
2022/04/11 07:50:52;;;;;;;13.00;2.30;;;13.30;99.90;;;;;;4991123;28;20035;-77
2022/04/11 07:53:18;;;;;;;16.83;2.92;;;13.30;99.90;;;;;;4989423;28;20026;-77
2022/04/11 07:55:44;;;;;;;17.08;3.15;;;13.40;99.90;;;;;;4990189;28;20029;-77
2022/04/11 07:58:10;;;;;;;12.73;2.13;;;13.60;99.90;;;;;;4986148;28;20086;-78
2022/04/11 08:00:36;;;;;;;15.05;2.83;;;13.60;99.90;;;;;;4963206;28;20070;-78
2022/04/11 08:03:01;;;;;;;14.75;2.50;;;13.90;99.90;;;;;;4970887;28;20031;-78
2022/04/11 08:05:27;;;;;;;17.45;2.40;;;14.00;99.90;;;;;;4966227;28;20482;-78
2022/04/11 08:07:53;;;;;;;9.48;2.03;;;14.20;99.90;;;;;;4980802;28;20035;-78
2022/04/11 08:10:21;;;;;;;12.32;1.85;;;14.40;99.90;;;;;;4963074;28;20442;-78
2022/04/11 08:12:55;;;;;;;14.25;3.05;;;14.50;99.90;;;;;;4972175;28;20490;-78
2022/04/11 08:15:21;;;;;;;15.95;2.78;;;14.90;99.90;;;;;;4959765;28;20554;-81
2022/04/11 08:17:47;;;;;;;9.10;2.50;;;14.90;99.90;;;;;;4971961;28;20027;-77
2022/04/11 08:20:12;;;;;;;12.23;2.40;;;14.90;99.90;;;;;;4973207;28;20085;-77
2022/04/11 08:22:38;;;;;;;17.13;2.47;;;15.10;99.90;;;;;;4958731;28;20026;-79
2022/04/11 08:25:04;;;;;;;11.90;2.38;;;15.30;99.90;;;;;;4958281;28;20028;-79
2022/04/11 08:27:30;;;;;;;15.88;2.08;;;15.20;99.90;;;;;;4971573;28;20610;-79
2022/04/11 08:29:56;;;;;;;17.30;2.50;;;15.30;99.90;;;;;;4966890;28;20105;-81
2022/04/11 08:32:21;;;;;;;15.65;2.63;;;15.30;99.90;;;;;;4949321;28;20059;-79
2022/04/11 08:34:47;;;;;;;15.88;2.33;;;15.50;99.90;;;;;;4975743;28;20045;-79
2022/04/11 08:37:13;;;;;;;13.68;2.22;;;15.50;99.90;;;;;;4965909;28;20035;-79
2022/04/11 08:39:38;;;;;;;12.98;2.60;;;15.50;99.90;;;;;;4973147;28;20030;-79
2022/04/11 08:42:04;;;;;;;10.95;2.03;;;15.60;99.90;;;;;;4964483;28;20039;-78
2022/04/11 08:44:32;;;;;;;11.20;2.22;;;15.60;99.90;;;;;;4964526;28;20098;-78
2022/04/11 08:47:02;;;;;;;10.38;2.22;;;15.60;99.90;;;;;;4966835;28;20022;-79
2022/04/11 08:49:29;;;;;;;16.17;2.72;;;15.90;99.90;;;;;;4972313;28;20020;-79
2022/04/11 08:51:55;;;;;;;12.30;3.00;;;15.70;99.90;;;;;;4946620;28;20406;-78
2022/04/11 08:54:21;;;;;;;14.65;2.20;;;15.40;99.90;;;;;;4955901;28;20037;-78
2022/04/11 08:56:47;;;;;;;13.27;2.67;;;15.50;99.90;;;;;;4953603;28;20409;-79
2022/04/11 08:59:14;;;;;;;13.30;2.53;;;15.90;99.90;;;;;;4959289;28;20036;-78
2022/04/11 09:01:40;;;;;;;13.77;2.55;;;15.90;99.90;;;;;;4956455;28;20027;-77
2022/04/11 09:04:08;;;;;;;11.35;3.22;;;16.00;99.90;;;;;;4969787;28;20470;-77
2022/04/11 09:06:35;;;;;;;14.48;2.25;;;16.50;99.90;;;;;;4975249;28;20038;-77
2022/04/11 09:09:02;;;;;;;11.50;1.90;;;16.70;99.90;;;;;;4944164;28;20360;-78
2022/04/11 09:11:36;;;;;;;8.98;2.20;;;16.90;99.90;;;;;;4970127;28;20023;-77
2022/04/11 09:14:07;;;;;;;21.70;2.85;;;16.60;99.90;;;;;;4969416;28;20027;-78
2022/04/11 09:16:42;;;;;;;13.77;2.30;;;16.30;99.90;;;;;;4973424;28;20381;-78
2022/04/11 09:19:21;;;;;;;17.08;2.90;;;16.30;99.90;;;;;;4966680;28;20030;-78
2022/04/11 09:21:48;;;;;;;10.07;2.17;;;16.30;99.90;;;;;;4967293;28;20038;-76
2022/04/11 09:24:19;;;;;;;14.45;2.50;;;16.00;99.90;;;;;;4963316;28;20031;-75
2022/04/11 09:26:46;;;;;;;17.27;2.30;;;16.10;99.90;;;;;;4944862;28;20058;-80
2022/04/11 09:29:12;;;;;;;13.20;2.20;;;16.00;99.90;;;;;;4960787;28;20371;-78
2022/04/11 09:31:38;;;;;;;14.25;2.95;;;16.60;99.90;;;;;;4968209;28;20022;-78
2022/04/11 09:34:25;;;;;;;14.60;2.72;;;16.70;99.90;;;;;;4939801;28;20482;-77
2022/04/11 09:36:51;;;;;;;13.38;3.08;;;16.60;99.90;;;;;;4949480;28;20035;-77
2022/04/11 09:39:24;;;;;;;15.15;2.60;;;16.90;99.90;;;;;;4967088;28;20045;-77
2022/04/11 09:41:51;;;;;;;10.70;1.65;;;16.70;99.90;;;;;;4945672;28;20554;-78
2022/04/11 09:44:36;;;;;;;15.10;2.38;;;16.60;99.90;;;;;;4954082;28;20026;-78
2022/04/11 09:47:04;;;;;;;10.18;2.50;;;17.10;99.90;;;;;;4970099;28;20050;-78
2022/04/11 09:49:30;;;;;;;20.15;3.75;;;17.20;99.50;;;;;;4972582;28;20015;-78
2022/04/11 09:52:05;;;;;;;12.00;2.10;;;17.00;99.70;;;;;;4959340;28;20045;-78
2022/04/11 09:54:32;;;;;;;16.30;2.65;;;17.50;99.20;;;;;;4974168;28;20058;-78
2022/04/11 09:57:02;;;;;;;23.45;2.60;;;17.40;99.20;;;;;;4959333;28;20039;-77
2022/04/11 09:59:28;;;;;;;12.98;2.55;;;17.40;98.50;;;;;;4949588;28;20453;-78
2022/04/11 10:01:56;;;;;;;12.13;2.53;;;17.30;98.20;;;;;;4964709;28;20039;-77
2022/04/11 10:04:23;;;;;;;7.85;2.10;;;17.20;98.80;;;;;;4972402;28;20107;-78
2022/04/11 10:06:49;;;;;;;15.52;2.90;;;17.20;97.80;;;;;;4966072;28;20023;-78
2022/04/11 10:09:16;;;;;;;11.90;2.95;;;17.40;98.00;;;;;;4965424;28;20023;-78
2022/04/11 10:11:43;;;;;;;9.40;2.25;;;17.20;98.00;;;;;;4961380;28;20093;-78
2022/04/11 10:14:17;;;;;;;10.10;2.20;;;17.40;97.20;;;;;;4968614;28;20089;-78
2022/04/11 10:16:44;;;;;;;13.90;2.70;;;17.00;97.10;;;;;;4969202;28;20034;-78
2022/04/11 10:19:13;;;;;;;12.68;2.58;;;17.30;97.10;;;;;;4960527;28;20065;-77
2022/04/11 10:21:43;;;;;;;15.98;2.92;;;17.00;97.40;;;;;;4965581;28;20041;-77
2022/04/11 10:24:20;;;;;;;12.63;2.17;;;17.10;97.30;;;;;;4962155;28;20027;-77
2022/04/11 10:26:47;;;;;;;8.75;2.55;;;16.80;97.30;;;;;;4963453;28;20027;-78
2022/04/11 10:29:36;;;;;;;14.45;2.92;;;17.20;97.30;;;;;;4960000;28;20023;-77
2022/04/11 10:32:13;;;;;;;10.02;2.67;;;17.10;97.30;;;;;;4959065;28;20472;-78
2022/04/11 10:35:03;;;;;;;16.80;3.25;;;16.90;97.20;;;;;;4955603;28;20522;-78
2022/04/11 10:37:49;;;;;;;15.60;2.33;;;17.00;97.50;;;;;;4942958;28;20114;-78
2022/04/11 10:40:17;;;;;;;16.20;2.38;;;17.20;97.70;;;;;;4950195;28;20499;-79
2022/04/11 10:43:01;;;;;;;16.75;2.58;;;17.50;97.40;;;;;;4947696;28;20034;-79
2022/04/11 10:45:30;;;;;;;14.38;2.25;;;17.40;97.30;;;;;;4948184;28;20042;-79
2022/04/11 10:47:56;;;;;;;13.07;2.50;;;17.30;97.60;;;;;;4961121;28;20031;-79
2022/04/11 10:50:23;;;;;;;11.90;2.78;;;17.40;97.50;;;;;;4947004;28;20025;-79
2022/04/11 10:52:55;;;;;;;9.40;2.03;;;17.60;97.30;;;;;;4959051;28;20102;-78
2022/04/11 10:55:22;;;;;;;14.27;2.45;;;17.30;97.70;;;;;;4956205;28;20031;-78
2022/04/11 10:57:55;;;;;;;10.13;2.50;;;17.20;97.10;;;;;;4950369;28;20045;-78
2022/04/11 11:00:27;;;;;;;12.63;2.15;;;17.40;97.30;;;;;;4957106;28;20537;-78
2022/04/11 11:02:53;;;;;;;18.80;2.33;;;16.90;97.50;;;;;;4964278;28;20098;-78
2022/04/11 11:05:43;;;;;;;8.52;2.17;;;17.00;97.90;;;;;;4957635;28;20024;-78
2022/04/11 11:08:11;;;;;;;13.93;3.58;;;17.10;97.80;;;;;;4948406;28;20085;-78
2022/04/11 11:10:49;;;;;;;10.18;2.10;;;17.10;97.50;;;;;;4952091;28;20019;-77
2022/04/11 11:13:44;;;;;;;16.17;3.05;;;17.20;97.00;;;;;;4954441;29;20487;-79
2022/04/11 11:16:10;;;;;;;12.68;2.40;;;17.50;97.20;;;;;;4942640;29;20063;-79
2022/04/11 11:18:51;;;;;;;12.45;2.42;;;17.40;97.20;;;;;;4955030;29;20458;-79
2022/04/11 11:21:48;;;;;;;15.93;2.08;;;17.60;96.90;;;;;;4954614;28;20054;-78
2022/04/11 11:24:15;;;;;;;17.15;3.05;;;16.90;97.50;;;;;;4937711;29;20036;-78
2022/04/11 11:26:59;;;;;;;11.50;2.38;;;17.10;97.40;;;;;;4955668;28;20034;-78
2022/04/11 11:29:31;;;;;;;20.20;2.60;;;16.90;97.70;;;;;;4937906;29;20337;-79
2022/04/11 11:32:01;;;;;;;;;;;17.30;98.00;;;;;;4963058;28;20101;-78
2022/04/11 11:34:29;;;;;;;16.52;2.88;;;17.30;97.90;;;;;;4966656;28;19915;-79
2022/04/11 11:36:59;;;;;;;14.30;2.60;;;17.20;97.90;;;;;;4959435;28;20046;-78
2022/04/11 11:39:29;;;;;;;16.02;3.10;;;17.00;97.40;;;;;;4964527;28;20151;-78
2022/04/11 11:42:04;;;;;;;16.55;2.28;;;16.90;97.50;;;;;;4961035;28;20039;-79
2022/04/11 11:44:31;;;;;;;13.63;2.92;;;16.80;97.50;;;;;;4959369;28;20033;-78
2022/04/11 11:46:58;;;;;;;12.75;2.70;;;16.60;97.90;;;;;;4971242;28;20218;-78
2022/04/11 11:49:25;;;;;;;17.00;2.05;;;16.70;98.00;;;;;;4964938;28;20557;-78
2022/04/11 11:51:51;;;;;;;12.40;2.78;;;16.90;98.00;;;;;;4961848;28;20037;-78
2022/04/11 11:54:34;;;;;;;19.92;3.47;;;16.90;98.20;;;;;;4979526;28;20026;-78
2022/04/11 11:57:00;;;;;;;12.10;2.72;;;16.80;98.80;;;;;;4967595;28;20034;-79
2022/04/11 11:59:26;;;;;;;14.35;2.65;;;17.10;98.10;;;;;;4963309;28;20549;-78
2022/04/11 12:04:39;;;;;;;14.75;3.22;;;17.20;97.30;;;;;;4971577;28;20026;-78
2022/04/11 12:07:07;;;;;;;10.10;2.15;;;17.10;97.20;;;;;;4962631;28;20054;-78
2022/04/11 12:09:38;;;;;;;15.10;2.25;;;17.30;97.50;;;;;;4947133;28;20042;-79
2022/04/11 12:12:05;;;;;;;13.67;2.60;;;17.50;97.60;;;;;;4949586;28;20035;-78
2022/04/11 12:15:01;;;;;;;14.00;2.55;;;17.40;97.30;;;;;;4962708;28;20487;-79
2022/04/11 12:17:41;;;;;;;12.05;2.38;;;17.60;97.50;;;;;;4938392;28;20087;-79
2022/04/11 12:20:16;;;;;;;14.18;2.60;;;17.60;97.30;;;;;;4966933;28;20023;-78
2022/04/11 12:23:03;;;;;;;11.43;3.03;;;17.40;97.40;;;;;;4957515;28;20499;-79
2022/04/11 12:25:38;;;;;;;9.35;2.10;;;17.30;97.70;;;;;;4957299;28;20027;-78
2022/04/11 12:28:13;;;;;;;10.65;1.83;;;17.30;97.80;;;;;;4961372;28;20059;-79
2022/04/11 12:30:44;;;;;;;19.35;3.53;;;17.50;97.80;;;;;;4967281;28;20134;-79
2022/04/11 12:33:40;;;;;;;15.73;3.25;;;17.30;97.80;;;;;;4937270;28;20031;-78
2022/04/11 12:36:31;;;;;;;12.45;2.05;;;17.50;98.00;;;;;;4937842;28;20122;-79
2022/04/11 12:39:15;;;;;;;15.63;2.75;;;17.30;97.90;;;;;;4962973;28;20031;-79
2022/04/11 12:41:41;;;;;;;8.85;2.67;;;17.20;98.20;;;;;;4956521;28;20517;-79
2022/04/11 12:44:15;;;;;;;13.65;2.58;;;17.30;98.00;;;;;;4937609;28;20050;-78
2022/04/11 12:46:56;;;;;;;16.52;2.53;;;17.20;97.90;;;;;;4961243;28;20387;-79
2022/04/11 12:49:22;;;;;;;18.35;2.72;;;17.20;98.40;;;;;;4963320;28;20070;-79
2022/04/11 12:52:02;;;;;;;14.65;2.80;;;17.00;98.60;;;;;;4963917;28;20031;-79
2022/04/11 12:54:50;;;;;;;12.00;2.00;;;17.10;98.70;;;;;;4961839;28;20019;-79
2022/04/11 12:57:33;;;;;;;19.98;2.90;;;16.50;98.70;;;;;;4974681;28;20027;-79
2022/04/11 13:00:19;;;;;;;15.38;3.22;;;16.00;99.60;;;;;;4940116;28;20131;-79
2022/04/11 13:02:45;;;;;;;15.40;2.95;;;16.10;99.90;;;;;;4975607;28;20022;-79
2022/04/11 13:05:15;;;;;;;16.83;2.80;;;15.90;99.90;;;;;;4969629;28;20037;-79
2022/04/11 13:07:45;;;;;;;13.48;3.53;;;16.00;99.90;;;;;;4957390;28;20098;-79
2022/04/11 13:10:11;;;;;;;14.45;2.60;;;16.20;99.90;;;;;;4966351;28;20497;-79
2022/04/11 13:12:37;;;;;;;12.68;2.90;;;16.10;99.90;;;;;;4938843;28;20019;-79
2022/04/11 13:15:03;;;;;;;21.90;3.10;;;16.40;99.80;;;;;;4949723;28;20430;-79
2022/04/11 13:20:15;;;;;;;16.52;2.38;;;16.60;99.80;;;;;;4957098;28;20498;-79
2022/04/11 13:22:41;;;;;;;13.52;2.55;;;16.20;99.80;;;;;;4962563;28;20467;-79
2022/04/11 13:25:07;;;;;;;11.48;2.47;;;16.50;99.80;;;;;;4965855;28;20026;-79
2022/04/11 13:27:33;;;;;;;13.07;3.33;;;16.60;99.60;;;;;;4966728;28;20402;-79
2022/04/11 13:29:58;;;;;;;15.52;2.53;;;16.30;99.40;;;;;;4960376;28;20031;-80
2022/04/11 13:32:24;;;;;;;16.67;3.47;;;16.00;99.90;;;;;;4961271;28;20051;-80
2022/04/11 13:34:50;;;;;;;8.55;1.92;;;16.20;99.90;;;;;;4969204;28;20062;-80
2022/04/11 13:37:17;;;;;;;10.38;2.22;;;16.20;99.90;;;;;;4969166;28;20042;-79
2022/04/11 13:39:43;;;;;;;11.20;2.92;;;16.10;99.90;;;;;;4962352;28;20030;-80
2022/04/11 13:42:09;;;;;;;10.70;2.35;;;16.30;99.90;;;;;;4955082;28;20114;-79
2022/04/11 13:44:35;;;;;;;10.88;2.28;;;16.00;99.90;;;;;;4956034;28;20107;-79
2022/04/11 13:47:01;;;;;;;14.98;2.95;;;16.10;99.90;;;;;;4957257;28;20102;-79
2022/04/11 13:49:26;;;;;;;14.38;2.50;;;16.00;99.80;;;;;;4966313;28;20061;-79
2022/04/11 13:51:52;;;;;;;15.35;2.63;;;16.10;99.90;;;;;;4978370;28;20050;-79
2022/04/11 13:54:18;;;;;;;17.65;2.70;;;16.20;99.90;;;;;;4963239;28;20030;-80
2022/04/11 13:56:44;;;;;;;15.35;2.95;;;16.20;99.80;;;;;;4979073;28;20031;-79
2022/04/11 13:59:12;;;;;;;14.27;2.65;;;16.40;99.40;;;;;;4962234;28;20082;-79
2022/04/11 14:01:39;;;;;;;14.50;2.20;;;16.30;99.30;;;;;;4952110;28;20031;-79
2022/04/11 14:04:06;;;;;;;18.23;3.45;;;16.40;99.10;;;;;;4962369;28;20102;-79
2022/04/11 14:06:35;;;;;;;13.38;2.35;;;16.20;99.30;;;;;;4965128;28;20487;-79
2022/04/11 14:09:07;;;;;;;10.80;2.28;;;16.00;99.40;;;;;;4966607;28;20029;-81
2022/04/11 14:11:34;;;;;;;17.02;2.25;;;15.80;99.90;;;;;;4962318;28;20625;-79
2022/04/11 14:14:00;;;;;;;14.02;2.45;;;16.20;99.60;;;;;;4968939;28;21483;-79
2022/04/11 14:16:26;;;;;;;16.02;2.38;;;15.90;99.90;;;;;;4962411;28;20058;-78
2022/04/11 14:18:51;;;;;;;19.38;2.85;;;15.80;99.50;;;;;;4972894;28;20487;-79
2022/04/11 14:21:17;;;;;;;18.40;2.85;;;15.70;99.90;;;;;;4958853;28;20118;-78
2022/04/11 14:23:44;;;;;;;21.00;3.17;;;15.80;99.90;;;;;;4964427;28;20456;-78
2022/04/11 14:26:10;;;;;;;18.45;2.83;;;15.70;99.80;;;;;;4969214;28;20022;-78
2022/04/11 14:28:37;;;;;;;12.93;2.38;;;15.30;99.90;;;;;;4964358;28;20085;-79
2022/04/11 14:31:02;;;;;;;13.25;3.03;;;15.30;99.90;;;;;;4956012;28;20031;-79